Time;durP1;ratioP1;P1;durP2;ratioP2;P2;SDS_P1;SDS_P2;PMS_P1;PMS_P2;Temp;Humidity;BMP_temperature;BMP_pressure;BME280_temperature;BME280_humidity;BME280_pressure;Samples;Min_cycle;Max_cycle;Signal;HPM_P1;HPM_P2
2023/03/11 00:00:16;;;;;;;18.23;11.48;;;3.40;99.90;;;;;;5107697;28;22142;-64
2023/03/11 00:02:46;;;;;;;20.48;12.48;;;3.40;99.90;;;;;;5091093;28;20036;-64
2023/03/11 00:05:17;;;;;;;17.95;12.10;;;3.40;99.90;;;;;;5079465;28;20089;-64
2023/03/11 00:07:42;;;;;;;17.60;11.48;;;3.40;99.90;;;;;;5085466;28;20028;-64
2023/03/11 00:10:13;;;;;;;18.23;11.90;;;3.40;99.90;;;;;;5093745;28;20032;-64
2023/03/11 00:12:38;;;;;;;17.20;11.70;;;3.50;99.90;;;;;;5086045;28;20445;-64
2023/03/11 00:15:05;;;;;;;16.63;10.93;;;3.50;99.90;;;;;;5082983;28;20119;-64
2023/03/11 00:17:30;;;;;;;17.85;10.63;;;3.50;99.90;;;;;;5096876;28;20023;-64
2023/03/11 00:19:56;;;;;;;14.68;10.45;;;3.50;99.90;;;;;;5101890;28;20035;-64
2023/03/11 00:22:21;;;;;;;17.25;11.07;;;3.50;99.90;;;;;;5084227;28;20113;-63
2023/03/11 00:24:47;;;;;;;18.33;11.20;;;3.50;99.90;;;;;;5100141;28;20548;-64
2023/03/11 00:27:12;;;;;;;18.00;10.27;;;3.60;99.90;;;;;;5112238;28;20088;-63
2023/03/11 00:29:38;;;;;;;16.67;10.80;;;3.50;99.90;;;;;;5105692;28;20051;-63
2023/03/11 00:32:04;;;;;;;18.80;11.25;;;3.50;99.90;;;;;;5108272;28;20042;-63
2023/03/11 00:34:29;;;;;;;16.08;10.75;;;3.60;99.90;;;;;;5107679;28;20042;-63
2023/03/11 00:36:55;;;;;;;14.98;11.18;;;3.60;99.90;;;;;;5083573;28;20024;-64
2023/03/11 00:39:22;;;;;;;18.50;11.13;;;3.60;99.90;;;;;;5104544;28;20051;-64
2023/03/11 00:41:47;;;;;;;16.85;10.82;;;3.50;99.90;;;;;;5112407;28;20024;-64
2023/03/11 00:44:13;;;;;;;16.67;10.48;;;3.50;99.90;;;;;;5110572;28;20031;-64
2023/03/11 00:46:38;;;;;;;14.25;10.18;;;3.60;99.90;;;;;;5106672;28;20085;-64
2023/03/11 00:49:05;;;;;;;16.88;10.80;;;3.50;99.90;;;;;;5096721;28;20434;-64
2023/03/11 00:51:31;;;;;;;18.98;10.88;;;3.50;99.90;;;;;;5105053;28;20044;-64
2023/03/11 00:53:56;;;;;;;17.77;11.45;;;3.50;99.90;;;;;;5091033;28;20040;-65
2023/03/11 00:56:22;;;;;;;16.92;10.57;;;3.50;99.90;;;;;;5102553;28;20059;-65
2023/03/11 00:58:47;;;;;;;15.90;10.23;;;3.50;99.90;;;;;;5099257;28;20406;-65
2023/03/11 01:01:16;;;;;;;17.13;10.90;;;3.50;99.90;;;;;;5101671;28;20031;-65
2023/03/11 01:03:43;;;;;;;15.68;10.40;;;3.40;99.90;;;;;;5101102;28;20429;-65
2023/03/11 01:06:08;;;;;;;16.40;10.10;;;3.40;99.90;;;;;;5100742;28;20037;-65
2023/03/11 01:08:34;;;;;;;14.90;10.90;;;3.50;99.90;;;;;;5097083;28;20131;-64
2023/03/11 01:11:00;;;;;;;15.23;11.20;;;3.50;99.90;;;;;;5110574;28;20024;-63
2023/03/11 01:13:28;;;;;;;18.13;12.05;;;3.50;99.90;;;;;;5102300;28;20043;-64
2023/03/11 01:15:53;;;;;;;21.60;13.35;;;3.50;99.90;;;;;;5093520;28;20423;-63
2023/03/11 01:18:19;;;;;;;18.38;11.93;;;3.40;99.90;;;;;;5093715;28;20035;-64
2023/03/11 01:20:46;;;;;;;16.05;11.52;;;3.50;99.90;;;;;;5095263;28;20443;-64
2023/03/11 01:23:12;;;;;;;17.30;11.07;;;3.50;99.90;;;;;;5100640;28;20052;-64
2023/03/11 01:25:38;;;;;;;17.90;12.23;;;3.40;99.90;;;;;;5097748;28;20035;-64
2023/03/11 01:28:04;;;;;;;20.48;12.82;;;3.40;99.90;;;;;;5100931;28;20440;-64
2023/03/11 01:30:30;;;;;;;16.52;10.00;;;3.30;99.90;;;;;;5094482;28;20190;-64
2023/03/11 01:32:56;;;;;;;17.90;11.32;;;3.30;99.90;;;;;;5104648;28;20032;-65
2023/03/11 01:35:24;;;;;;;17.95;11.70;;;3.30;99.90;;;;;;5093953;28;20032;-65
2023/03/11 01:37:51;;;;;;;18.77;11.93;;;3.30;99.90;;;;;;5096376;28;20030;-64
2023/03/11 01:40:23;;;;;;;16.75;11.25;;;3.20;99.90;;;;;;5102247;28;20445;-64
2023/03/11 01:42:48;;;;;;;17.25;11.60;;;3.20;99.90;;;;;;5089521;28;20029;-64
2023/03/11 01:45:29;;;;;;;14.80;10.00;;;3.20;99.90;;;;;;5084630;28;20391;-64
2023/03/11 01:47:54;;;;;;;16.17;9.45;;;3.10;99.90;;;;;;5114065;28;20085;-64
2023/03/11 01:50:20;;;;;;;13.68;8.60;;;3.10;99.90;;;;;;5101458;28;20102;-63
2023/03/11 01:52:46;;;;;;;14.43;8.93;;;3.10;99.90;;;;;;5112097;28;20020;-64
2023/03/11 01:55:13;;;;;;;13.57;8.02;;;3.00;99.90;;;;;;5104259;28;20028;-63
2023/03/11 01:57:41;;;;;;;10.95;7.00;;;3.00;99.90;;;;;;5110035;28;20052;-65
2023/03/11 02:00:09;;;;;;;10.57;7.38;;;3.00;99.90;;;;;;5092267;28;20028;-68
2023/03/11 02:02:40;;;;;;;11.18;7.20;;;2.90;99.90;;;;;;5108535;28;20055;-67
2023/03/11 02:05:06;;;;;;;8.13;5.25;;;2.90;99.90;;;;;;5101571;28;20020;-67
2023/03/11 02:07:32;;;;;;;8.48;5.78;;;3.00;99.90;;;;;;5101940;28;20028;-67
2023/03/11 02:09:58;;;;;;;6.32;4.30;;;3.00;99.90;;;;;;5095829;28;20043;-67
2023/03/11 02:12:24;;;;;;;5.32;3.70;;;3.00;99.90;;;;;;5102225;28;21638;-69
2023/03/11 02:14:52;;;;;;;4.40;2.70;;;3.00;99.90;;;;;;5090260;28;20100;-68
2023/03/11 02:17:19;;;;;;;4.05;2.72;;;3.00;99.90;;;;;;5097109;28;20479;-68
2023/03/11 02:20:13;;;;;;;3.53;2.38;;;3.00;99.90;;;;;;5091537;28;20035;-66
2023/03/11 02:22:41;;;;;;;4.38;2.55;;;3.10;99.90;;;;;;5093512;28;20085;-67
2023/03/11 02:25:19;;;;;;;3.58;2.13;;;3.00;99.90;;;;;;5093946;28;20050;-67
2023/03/11 02:27:48;;;;;;;2.22;1.85;;;3.10;99.90;;;;;;5094383;28;20078;-67
2023/03/11 02:30:16;;;;;;;3.45;1.80;;;3.10;99.90;;;;;;5091841;28;20040;-66
2023/03/11 02:32:47;;;;;;;2.67;1.85;;;3.00;99.90;;;;;;5095656;28;20030;-66
2023/03/11 02:35:14;;;;;;;2.70;1.88;;;3.00;99.90;;;;;;5111054;28;20130;-67
2023/03/11 02:37:45;;;;;;;2.75;2.10;;;3.00;99.90;;;;;;5098616;28;20059;-66
2023/03/11 02:40:22;;;;;;;3.42;2.13;;;3.00;99.90;;;;;;5092228;28;20077;-66
2023/03/11 02:42:54;;;;;;;2.92;1.90;;;3.00;99.90;;;;;;5094420;28;20031;-67
2023/03/11 02:45:23;;;;;;;4.30;2.47;;;3.00;99.90;;;;;;5092843;28;20028;-68
2023/03/11 02:47:50;;;;;;;4.32;2.45;;;3.00;99.90;;;;;;5083702;28;20032;-67
2023/03/11 02:50:17;;;;;;;4.60;2.63;;;3.00;99.90;;;;;;5085521;28;20074;-66
2023/03/11 02:52:43;;;;;;;3.30;2.10;;;2.90;99.90;;;;;;5109031;28;20024;-67
2023/03/11 02:55:14;;;;;;;3.38;2.03;;;2.90;99.90;;;;;;5099236;28;20055;-67
2023/03/11 02:57:41;;;;;;;2.80;2.03;;;3.00;99.90;;;;;;5098430;28;20043;-67
2023/03/11 03:00:14;;;;;;;2.60;1.83;;;3.00;99.90;;;;;;5092391;28;20574;-66
2023/03/11 03:02:40;;;;;;;3.42;2.05;;;3.00;99.90;;;;;;5105546;28;20080;-67
2023/03/11 03:05:07;;;;;;;3.80;2.08;;;3.10;99.90;;;;;;5109275;28;20027;-67
2023/03/11 03:07:33;;;;;;;3.00;2.10;;;3.10;99.90;;;;;;5098695;28;20067;-67
2023/03/11 03:09:59;;;;;;;3.13;2.20;;;3.10;99.90;;;;;;5112990;27;20058;-66
2023/03/11 03:12:24;;;;;;;3.33;2.20;;;3.10;99.90;;;;;;5110027;28;20028;-66
2023/03/11 03:14:50;;;;;;;4.22;2.55;;;3.00;99.90;;;;;;5104157;28;20035;-65
2023/03/11 03:17:16;;;;;;;3.40;2.08;;;3.00;99.90;;;;;;5100798;28;20107;-65
2023/03/11 03:19:41;;;;;;;3.58;2.50;;;3.00;99.90;;;;;;5110413;28;20386;-66
2023/03/11 03:22:07;;;;;;;3.20;2.40;;;3.00;99.90;;;;;;5093901;28;20063;-66
2023/03/11 03:24:33;;;;;;;4.97;3.03;;;3.10;99.90;;;;;;5070637;28;20032;-66
2023/03/11 03:26:58;;;;;;;3.63;2.25;;;3.10;99.90;;;;;;5096366;28;20031;-66
2023/03/11 03:29:24;;;;;;;3.95;2.80;;;3.10;99.90;;;;;;5111960;28;20032;-67
2023/03/11 03:31:50;;;;;;;4.40;2.65;;;3.10;99.90;;;;;;5099748;27;20023;-67
2023/03/11 03:34:15;;;;;;;3.92;3.15;;;3.00;99.90;;;;;;5112764;28;20102;-67
2023/03/11 03:36:41;;;;;;;5.05;3.20;;;3.10;99.90;;;;;;5100396;28;20111;-67
2023/03/11 03:39:06;;;;;;;6.13;3.40;;;3.10;99.90;;;;;;5096013;28;20039;-67
2023/03/11 03:41:32;;;;;;;5.55;3.67;;;3.20;99.90;;;;;;5092452;28;20506;-67
2023/03/11 03:43:58;;;;;;;6.57;3.15;;;3.20;99.90;;;;;;5109678;28;20486;-67
2023/03/11 03:46:24;;;;;;;4.18;3.03;;;3.20;99.90;;;;;;5099036;28;20297;-67
2023/03/11 03:48:49;;;;;;;4.55;3.10;;;3.20;99.90;;;;;;5110334;28;20073;-67
2023/03/11 03:51:15;;;;;;;4.78;3.45;;;3.20;99.90;;;;;;5097775;28;20060;-67
2023/03/11 03:53:42;;;;;;;5.25;3.45;;;3.20;99.90;;;;;;5110904;28;20378;-67
2023/03/11 03:56:13;;;;;;;5.13;3.55;;;3.20;99.90;;;;;;5088921;28;20024;-67
2023/03/11 03:58:39;;;;;;;5.28;4.07;;;3.20;99.90;;;;;;5111383;28;20120;-67
2023/03/11 04:01:05;;;;;;;5.57;3.65;;;3.20;99.90;;;;;;5098116;28;20039;-67
2023/03/11 04:03:31;;;;;;;5.45;3.97;;;3.20;99.90;;;;;;5105832;28;20028;-67
2023/03/11 04:06:17;;;;;;;5.97;4.15;;;3.20;99.90;;;;;;5091131;28;20032;-67
2023/03/11 04:08:42;;;;;;;6.35;3.88;;;3.30;99.90;;;;;;5099411;28;20040;-67
2023/03/11 04:11:08;;;;;;;5.05;3.35;;;3.30;99.90;;;;;;5090784;28;20099;-68
2023/03/11 04:13:34;;;;;;;5.97;4.00;;;3.30;99.90;;;;;;5094100;28;20174;-67
2023/03/11 04:16:02;;;;;;;4.80;3.15;;;3.30;99.90;;;;;;5091023;28;20052;-67
2023/03/11 04:18:28;;;;;;;5.13;3.65;;;3.30;99.90;;;;;;5107974;28;20126;-69
2023/03/11 04:20:54;;;;;;;5.50;3.72;;;3.30;99.90;;;;;;5091714;28;20299;-66
2023/03/11 04:23:19;;;;;;;5.90;3.38;;;3.30;99.90;;;;;;5103552;28;20482;-66
2023/03/11 04:25:45;;;;;;;5.35;3.60;;;3.40;99.90;;;;;;5091242;28;20405;-66
2023/03/11 04:28:10;;;;;;;4.85;3.53;;;3.40;99.90;;;;;;5091742;28;20081;-66
2023/03/11 04:30:36;;;;;;;5.68;4.32;;;3.40;99.90;;;;;;5091668;28;20024;-66
2023/03/11 04:33:02;;;;;;;5.68;4.35;;;3.40;99.90;;;;;;5104285;28;20039;-66
2023/03/11 04:35:27;;;;;;;5.82;3.63;;;3.40;99.90;;;;;;5091847;28;20424;-67
2023/03/11 04:37:53;;;;;;;4.28;3.63;;;3.40;99.90;;;;;;5100359;28;20039;-68
2023/03/11 04:40:19;;;;;;;5.03;3.33;;;3.40;99.90;;;;;;5091120;28;20036;-67
2023/03/11 04:42:44;;;;;;;5.72;3.22;;;3.50;99.90;;;;;;5090616;28;20613;-68
2023/03/11 04:45:10;;;;;;;4.55;3.30;;;3.50;99.90;;;;;;5094418;28;20107;-66
2023/03/11 04:47:36;;;;;;;5.15;3.30;;;3.50;99.90;;;;;;5109530;28;20032;-67
2023/03/11 04:50:02;;;;;;;4.28;3.13;;;3.50;99.90;;;;;;5092169;28;20047;-67
2023/03/11 04:52:28;;;;;;;4.45;2.97;;;3.50;99.90;;;;;;5089508;28;20024;-67
2023/03/11 04:54:53;;;;;;;3.47;2.58;;;3.50;99.90;;;;;;5090758;28;20035;-67
2023/03/11 04:57:19;;;;;;;4.18;2.65;;;3.40;99.90;;;;;;5097293;28;20112;-67
2023/03/11 04:59:45;;;;;;;4.47;3.30;;;3.30;99.90;;;;;;5108909;28;20508;-66
2023/03/11 05:02:10;;;;;;;4.28;3.17;;;3.30;99.90;;;;;;5089474;28;20365;-67
2023/03/11 05:04:36;;;;;;;4.65;3.70;;;3.20;99.90;;;;;;5077002;28;20545;-67
2023/03/11 05:07:02;;;;;;;3.70;2.65;;;3.30;99.90;;;;;;5096172;28;20035;-67
2023/03/11 05:09:27;;;;;;;4.20;3.15;;;3.30;99.90;;;;;;5114638;27;20035;-66
2023/03/11 05:11:53;;;;;;;4.70;2.88;;;3.30;99.90;;;;;;5093980;28;20532;-67
2023/03/11 05:14:18;;;;;;;4.40;3.25;;;3.30;99.90;;;;;;5093900;28;20032;-66
2023/03/11 05:16:44;;;;;;;5.68;3.03;;;3.30;99.90;;;;;;5093013;28;20069;-67
2023/03/11 05:21:54;;;;;;;5.70;3.45;;;3.30;99.90;;;;;;5094944;28;20028;-64
2023/03/11 05:24:19;;;;;;;4.30;3.10;;;3.30;99.90;;;;;;5104646;28;20028;-64
2023/03/11 05:26:45;;;;;;;4.97;3.42;;;3.30;99.90;;;;;;5094353;28;20052;-63
2023/03/11 05:29:11;;;;;;;4.60;3.25;;;3.20;99.90;;;;;;5104089;28;20387;-62
2023/03/11 05:31:37;;;;;;;4.95;3.17;;;3.30;99.90;;;;;;5082138;28;20032;-62
2023/03/11 05:34:03;;;;;;;4.88;3.17;;;3.30;99.90;;;;;;5108034;28;20043;-62
2023/03/11 05:36:29;;;;;;;4.45;3.08;;;3.30;99.90;;;;;;5112455;28;20023;-62
2023/03/11 05:38:54;;;;;;;4.55;3.55;;;3.30;99.90;;;;;;5105019;28;20024;-62
2023/03/11 05:41:20;;;;;;;6.03;3.10;;;3.30;99.90;;;;;;5094070;28;20065;-62
2023/03/11 05:43:45;;;;;;;4.35;2.85;;;3.30;99.90;;;;;;5096619;28;20572;-62
2023/03/11 05:46:11;;;;;;;4.05;3.05;;;3.30;99.90;;;;;;5093446;28;20472;-62
2023/03/11 05:48:37;;;;;;;4.65;3.00;;;3.40;99.90;;;;;;5097550;28;20059;-62
2023/03/11 05:51:10;;;;;;;4.03;2.90;;;3.50;99.90;;;;;;5108521;28;20053;-62
2023/03/11 05:53:36;;;;;;;4.95;3.55;;;3.40;99.90;;;;;;5085336;28;20028;-62
2023/03/11 05:56:03;;;;;;;4.03;2.85;;;3.40;99.90;;;;;;5093586;28;20027;-62
2023/03/11 05:58:29;;;;;;;4.57;3.28;;;3.40;99.90;;;;;;5095959;28;20044;-62
2023/03/11 06:00:55;;;;;;;4.97;3.78;;;3.40;99.90;;;;;;5093630;28;20024;-62
2023/03/11 06:03:21;;;;;;;5.40;3.60;;;3.40;99.90;;;;;;5097381;28;20057;-63
2023/03/11 06:05:48;;;;;;;5.40;3.55;;;3.40;99.90;;;;;;5091676;28;20118;-63
2023/03/11 06:08:14;;;;;;;4.68;3.40;;;3.40;99.90;;;;;;5104643;28;20024;-62
2023/03/11 06:10:41;;;;;;;4.68;3.47;;;3.40;99.90;;;;;;5079695;28;20055;-61
2023/03/11 06:13:06;;;;;;;5.25;3.88;;;3.50;99.90;;;;;;5101565;28;20069;-62
2023/03/11 06:15:33;;;;;;;5.43;3.78;;;3.50;99.90;;;;;;5107012;28;20024;-63
2023/03/11 06:17:59;;;;;;;4.68;3.55;;;3.50;99.90;;;;;;5100340;28;20034;-63
2023/03/11 06:20:25;;;;;;;8.18;3.53;;;3.50;99.90;;;;;;5097731;28;20032;-62
2023/03/11 06:22:51;;;;;;;5.30;3.50;;;3.50;99.90;;;;;;5099256;28;20023;-62
2023/03/11 06:25:17;;;;;;;5.93;4.28;;;3.50;99.90;;;;;;5097671;27;20051;-63
2023/03/11 06:27:47;;;;;;;6.95;4.50;;;3.50;99.90;;;;;;5095267;28;20051;-63
2023/03/11 06:30:13;;;;;;;7.72;3.53;;;3.50;99.90;;;;;;5113307;28;20062;-63
2023/03/11 06:32:38;;;;;;;5.28;3.60;;;3.50;99.90;;;;;;5106976;28;20494;-63
2023/03/11 06:35:04;;;;;;;5.20;4.10;;;3.60;99.90;;;;;;5111816;28;20027;-63
2023/03/11 06:37:30;;;;;;;5.07;3.80;;;3.50;99.90;;;;;;5095593;28;20024;-62
2023/03/11 06:39:55;;;;;;;5.95;4.25;;;3.50;99.90;;;;;;5113657;28;20035;-63
2023/03/11 06:42:25;;;;;;;5.93;4.25;;;3.50;99.90;;;;;;5096257;28;20078;-65
2023/03/11 06:44:51;;;;;;;6.10;4.00;;;3.60;99.90;;;;;;5113659;28;20023;-65
2023/03/11 06:47:16;;;;;;;6.78;3.90;;;3.60;99.90;;;;;;5095686;28;20032;-65
2023/03/11 06:49:42;;;;;;;6.18;4.35;;;3.50;99.90;;;;;;5080382;28;20040;-65
2023/03/11 06:52:08;;;;;;;5.70;3.90;;;3.50;99.90;;;;;;5090855;28;20063;-65
2023/03/11 06:54:34;;;;;;;6.75;4.07;;;3.50;99.90;;;;;;5098800;28;20024;-64
2023/03/11 06:57:00;;;;;;;6.68;4.43;;;3.50;99.90;;;;;;5092333;28;20479;-65
2023/03/11 06:59:27;;;;;;;6.45;4.40;;;3.60;99.90;;;;;;5078300;28;20070;-65
2023/03/11 07:01:53;;;;;;;6.93;4.50;;;3.50;99.90;;;;;;5076623;28;20079;-64
2023/03/11 07:04:19;;;;;;;6.80;5.13;;;3.60;99.90;;;;;;5096817;28;20506;-64
2023/03/11 07:06:44;;;;;;;8.10;5.50;;;3.60;99.90;;;;;;5093117;28;20024;-66
2023/03/11 07:09:10;;;;;;;8.63;5.30;;;3.60;99.90;;;;;;5103289;28;20484;-66
2023/03/11 07:11:36;;;;;;;6.03;4.22;;;3.60;99.90;;;;;;5084944;28;20043;-66
2023/03/11 07:14:02;;;;;;;6.15;4.28;;;3.60;99.90;;;;;;5088601;28;20040;-65
2023/03/11 07:16:29;;;;;;;7.30;4.22;;;3.50;99.90;;;;;;5078466;28;20042;-66
2023/03/11 07:19:01;;;;;;;8.93;4.97;;;3.50;99.90;;;;;;5091315;28;20032;-67
2023/03/11 07:21:29;;;;;;;6.75;4.60;;;3.50;99.90;;;;;;5073698;28;20036;-67
2023/03/11 07:23:56;;;;;;;7.13;5.47;;;3.50;99.90;;;;;;5092745;28;20035;-66
2023/03/11 07:26:23;;;;;;;7.13;4.40;;;3.50;99.90;;;;;;5106875;28;20066;-67
2023/03/11 07:28:50;;;;;;;8.07;4.95;;;3.40;99.90;;;;;;5093375;28;20039;-67
2023/03/11 07:31:18;;;;;;;7.05;5.05;;;3.40;99.90;;;;;;5100896;28;20060;-66
2023/03/11 07:33:44;;;;;;;8.63;5.65;;;3.50;99.90;;;;;;5088673;28;20032;-66
2023/03/11 07:36:15;;;;;;;7.82;5.43;;;3.50;99.90;;;;;;5106623;28;20088;-66
2023/03/11 07:38:41;;;;;;;10.45;5.25;;;3.60;99.90;;;;;;5089512;28;20028;-67
2023/03/11 07:41:08;;;;;;;7.30;5.22;;;3.60;99.90;;;;;;5081742;28;20054;-67
2023/03/11 07:43:33;;;;;;;8.20;5.22;;;3.60;99.90;;;;;;5088234;28;20118;-66
2023/03/11 07:46:17;;;;;;;6.28;4.85;;;3.70;99.90;;;;;;5070778;28;20106;-67
2023/03/11 07:48:43;;;;;;;7.10;4.60;;;3.70;99.90;;;;;;5089178;28;20048;-68
2023/03/11 07:51:15;;;;;;;6.82;4.47;;;3.70;99.90;;;;;;5088030;28;20511;-66
2023/03/11 07:53:41;;;;;;;5.80;4.20;;;3.80;99.90;;;;;;5082920;28;20068;-67
2023/03/11 07:56:09;;;;;;;7.10;5.10;;;3.70;99.90;;;;;;5083950;28;20435;-67
2023/03/11 07:58:35;;;;;;;6.40;4.40;;;3.70;99.90;;;;;;5081424;28;20136;-63
2023/03/11 08:01:11;;;;;;;7.72;4.82;;;3.80;99.90;;;;;;5096783;28;20135;-66
2023/03/11 08:03:37;;;;;;;7.43;4.40;;;3.80;99.90;;;;;;5084182;28;20047;-67
2023/03/11 08:06:20;;;;;;;10.15;5.32;;;3.90;99.90;;;;;;5086497;28;20480;-66
2023/03/11 08:08:47;;;;;;;9.52;4.97;;;4.00;99.90;;;;;;5076751;28;20037;-67
2023/03/11 08:11:13;;;;;;;7.95;5.30;;;4.00;99.90;;;;;;5080349;28;20112;-67
2023/03/11 08:13:40;;;;;;;7.63;5.88;;;4.10;99.90;;;;;;5089661;28;20031;-66
2023/03/11 08:16:07;;;;;;;11.15;4.70;;;4.10;99.90;;;;;;5077747;28;20031;-68
2023/03/11 08:18:33;;;;;;;7.95;4.93;;;4.20;99.90;;;;;;5094066;28;20063;-67
2023/03/11 08:21:04;;;;;;;7.82;4.50;;;4.20;99.90;;;;;;5096778;28;20082;-67
2023/03/11 08:23:29;;;;;;;8.00;5.13;;;4.20;99.90;;;;;;5095972;28;20058;-67
2023/03/11 08:25:55;;;;;;;7.53;4.85;;;4.20;99.90;;;;;;5088445;28;20028;-67
2023/03/11 08:28:21;;;;;;;10.80;5.78;;;4.30;99.90;;;;;;5075821;28;20044;-66
2023/03/11 08:30:46;;;;;;;7.07;4.68;;;4.40;99.90;;;;;;5078651;28;20381;-67
2023/03/11 08:33:12;;;;;;;8.50;4.95;;;4.40;99.90;;;;;;5101212;28;20069;-66
2023/03/11 08:35:38;;;;;;;7.07;5.20;;;4.60;99.90;;;;;;5093727;28;20068;-66
2023/03/11 08:38:03;;;;;;;6.30;5.25;;;4.50;99.90;;;;;;5104913;28;20039;-68
2023/03/11 08:40:29;;;;;;;7.22;4.50;;;4.50;99.90;;;;;;5097395;28;20159;-67
2023/03/11 08:42:55;;;;;;;9.35;5.28;;;4.60;99.90;;;;;;5093420;28;20028;-67
2023/03/11 08:45:21;;;;;;;7.07;4.30;;;4.60;99.90;;;;;;5083611;28;20039;-66
2023/03/11 08:47:47;;;;;;;6.30;4.28;;;4.60;99.90;;;;;;5090778;28;20036;-67
2023/03/11 08:50:16;;;;;;;6.45;4.70;;;4.60;99.90;;;;;;5091953;28;20479;-67
2023/03/11 08:52:41;;;;;;;7.93;4.45;;;4.70;99.90;;;;;;5100537;28;20032;-67
2023/03/11 08:55:10;;;;;;;5.88;4.05;;;4.70;99.90;;;;;;5093938;28;20415;-67
2023/03/11 08:57:37;;;;;;;5.75;4.03;;;4.60;99.90;;;;;;5100605;28;20503;-67
2023/03/11 09:00:03;;;;;;;6.70;4.82;;;4.70;99.90;;;;;;5106914;28;20114;-67
2023/03/11 09:02:29;;;;;;;8.45;4.78;;;4.60;99.90;;;;;;5099357;28;20038;-66
2023/03/11 09:04:55;;;;;;;7.93;4.53;;;4.60;99.90;;;;;;5093075;28;20585;-66
2023/03/11 09:07:20;;;;;;;6.65;4.20;;;4.60;99.90;;;;;;5096438;28;20119;-65
2023/03/11 09:09:46;;;;;;;6.72;4.53;;;4.70;99.90;;;;;;5105917;28;20040;-66
2023/03/11 09:12:12;;;;;;;8.10;5.00;;;4.70;99.90;;;;;;5107993;28;20027;-66
2023/03/11 09:14:42;;;;;;;6.35;4.25;;;4.70;99.90;;;;;;5082502;28;20032;-66
2023/03/11 09:17:10;;;;;;;5.55;4.18;;;4.80;99.90;;;;;;5090295;28;20050;-65
2023/03/11 09:19:37;;;;;;;8.85;4.60;;;4.80;99.90;;;;;;5087810;28;20047;-66
2023/03/11 09:22:03;;;;;;;8.10;4.75;;;4.90;99.90;;;;;;5090262;28;20024;-66
2023/03/11 09:24:33;;;;;;;6.25;4.38;;;5.00;99.90;;;;;;5102339;27;20024;-66
2023/03/11 09:26:59;;;;;;;9.93;4.88;;;5.00;99.90;;;;;;5081163;28;20020;-66
2023/03/11 09:29:25;;;;;;;6.43;3.70;;;5.00;99.80;;;;;;5105326;28;20528;-67
2023/03/11 09:31:50;;;;;;;6.68;4.18;;;5.00;99.90;;;;;;5098669;28;20056;-66
2023/03/11 09:34:16;;;;;;;5.70;3.97;;;5.10;99.90;;;;;;5104748;28;20067;-66
2023/03/11 09:36:42;;;;;;;5.65;4.22;;;5.10;99.90;;;;;;5089621;28;20032;-66
2023/03/11 09:39:08;;;;;;;6.32;4.38;;;5.20;99.90;;;;;;5092887;28;20471;-67
2023/03/11 09:41:55;;;;;;;5.60;3.95;;;5.20;99.90;;;;;;5094385;28;20032;-68
2023/03/11 09:44:33;;;;;;;5.90;4.05;;;5.20;99.90;;;;;;5092800;28;20032;-67
2023/03/11 09:47:29;;;;;;;6.07;4.05;;;5.20;99.80;;;;;;5095317;28;20029;-66
2023/03/11 09:50:29;;;;;;;7.20;4.45;;;5.10;99.80;;;;;;5075458;28;20075;-66
2023/03/11 09:53:17;;;;;;;6.43;4.07;;;5.10;99.80;;;;;;5089206;28;20028;-67
2023/03/11 09:55:52;;;;;;;6.82;4.47;;;5.10;99.70;;;;;;5072322;28;20031;-67
2023/03/11 09:58:29;;;;;;;6.70;5.03;;;5.20;99.90;;;;;;5090722;28;20105;-66
2023/03/11 10:00:55;;;;;;;5.53;3.80;;;5.20;99.90;;;;;;5086733;28;20067;-66
2023/03/11 10:03:27;;;;;;;6.47;4.68;;;5.20;99.90;;;;;;5107623;28;20063;-66
2023/03/11 10:06:02;;;;;;;6.18;4.22;;;5.20;99.90;;;;;;5092918;28;20016;-67
2023/03/11 10:08:38;;;;;;;8.95;5.78;;;5.30;99.90;;;;;;5092961;28;20024;-66
2023/03/11 10:11:31;;;;;;;6.20;4.65;;;5.40;99.90;;;;;;5091856;28;20434;-67
2023/03/11 10:14:12;;;;;;;6.00;4.35;;;5.40;99.90;;;;;;5108025;28;20490;-68
2023/03/11 10:16:56;;;;;;;8.20;4.60;;;5.40;99.90;;;;;;5088587;28;20098;-67
2023/03/11 10:19:51;;;;;;;7.10;4.82;;;5.40;99.90;;;;;;5091427;28;20028;-67
2023/03/11 10:22:40;;;;;;;5.95;4.57;;;5.40;99.90;;;;;;5077041;28;20061;-67
2023/03/11 10:25:24;;;;;;;6.22;4.68;;;5.50;99.90;;;;;;5077974;28;20420;-67
2023/03/11 10:27:57;;;;;;;7.50;4.28;;;5.50;99.80;;;;;;5101500;28;20772;-68
2023/03/11 10:30:39;;;;;;;6.20;4.40;;;5.50;99.80;;;;;;5099682;28;20124;-67
2023/03/11 10:33:19;;;;;;;5.63;4.55;;;5.60;99.60;;;;;;5088657;28;20498;-65
2023/03/11 10:35:50;;;;;;;6.30;4.78;;;5.50;99.50;;;;;;5093378;28;20028;-66
2023/03/11 10:38:21;;;;;;;6.43;5.25;;;5.60;99.80;;;;;;5098525;28;20028;-69
2023/03/11 10:40:49;;;;;;;7.93;4.90;;;5.60;99.40;;;;;;5111955;27;20020;-66
2023/03/11 10:43:23;;;;;;;6.18;4.85;;;5.60;99.40;;;;;;5094638;28;20343;-66
2023/03/11 10:45:50;;;;;;;6.43;4.85;;;5.70;99.50;;;;;;5089180;28;20143;-67
2023/03/11 10:48:17;;;;;;;8.00;5.25;;;5.80;99.60;;;;;;5096221;28;20032;-67
2023/03/11 10:51:01;;;;;;;6.38;4.57;;;5.90;99.50;;;;;;5108144;28;20043;-67
2023/03/11 10:53:27;;;;;;;7.53;5.30;;;6.00;99.50;;;;;;5089422;28;20020;-68
2023/03/11 10:55:55;;;;;;;6.43;5.03;;;6.00;99.50;;;;;;5097111;28;20119;-68
2023/03/11 10:58:24;;;;;;;7.72;5.47;;;6.00;99.50;;;;;;5091402;28;20058;-66
2023/03/11 11:01:03;;;;;;;6.82;4.70;;;6.00;99.10;;;;;;5109997;28;20102;-67
2023/03/11 11:03:30;;;;;;;5.50;4.63;;;5.90;98.30;;;;;;5087923;27;20069;-67
2023/03/11 11:06:02;;;;;;;7.13;4.63;;;5.90;98.70;;;;;;5093775;28;20030;-67
2023/03/11 11:08:28;;;;;;;6.32;4.95;;;5.90;98.70;;;;;;5095320;28;20031;-67
2023/03/11 11:10:55;;;;;;;7.60;5.45;;;5.90;99.00;;;;;;5090014;28;20143;-67
2023/03/11 11:13:23;;;;;;;6.57;4.80;;;6.00;98.80;;;;;;5089392;28;20042;-67
2023/03/11 11:15:51;;;;;;;8.00;5.70;;;5.90;98.30;;;;;;5091214;28;20055;-67
2023/03/11 11:18:31;;;;;;;7.82;4.95;;;6.00;98.50;;;;;;5093905;28;20031;-67
2023/03/11 11:21:02;;;;;;;8.77;5.47;;;6.00;98.60;;;;;;5085592;28;20111;-68
2023/03/11 11:23:30;;;;;;;6.13;5.28;;;6.00;98.40;;;;;;5090925;28;20735;-67
2023/03/11 11:25:59;;;;;;;7.55;6.13;;;5.90;98.10;;;;;;5094432;28;20032;-67
2023/03/11 11:28:25;;;;;;;11.32;5.95;;;5.90;98.40;;;;;;5089960;28;20037;-66
2023/03/11 11:30:56;;;;;;;8.15;5.93;;;6.00;97.90;;;;;;5091198;28;20154;-66
2023/03/11 11:33:37;;;;;;;9.18;6.10;;;6.00;98.30;;;;;;5089857;28;20024;-67
2023/03/11 11:36:05;;;;;;;9.85;6.53;;;6.00;98.10;;;;;;5091868;28;20059;-67
2023/03/11 11:38:32;;;;;;;10.80;6.75;;;6.00;97.50;;;;;;5095018;28;20021;-66
2023/03/11 11:41:01;;;;;;;7.82;5.43;;;5.90;97.30;;;;;;5088989;28;20032;-66
2023/03/11 11:43:48;;;;;;;9.77;6.97;;;5.80;97.10;;;;;;5094675;28;20028;-66
2023/03/11 11:46:33;;;;;;;8.48;6.60;;;5.70;97.40;;;;;;5089459;28;20059;-67
2023/03/11 11:49:27;;;;;;;10.18;6.03;;;5.70;97.40;;;;;;5095285;28;20047;-67
2023/03/11 11:52:15;;;;;;;8.32;6.47;;;5.80;97.80;;;;;;5084639;28;20076;-67
2023/03/11 11:54:52;;;;;;;11.70;6.43;;;5.70;97.70;;;;;;5091651;28;20054;-66
2023/03/11 11:57:20;;;;;;;8.13;6.30;;;5.80;97.90;;;;;;5073849;28;20040;-66
2023/03/11 11:59:47;;;;;;;11.68;7.35;;;5.90;97.90;;;;;;5092439;28;20035;-66
2023/03/11 12:02:26;;;;;;;9.70;7.00;;;5.90;97.60;;;;;;5096659;28;20065;-65
2023/03/11 12:05:21;;;;;;;8.95;7.20;;;5.90;97.90;;;;;;5100765;28;20048;-66
2023/03/11 12:08:01;;;;;;;8.02;6.22;;;6.00;97.90;;;;;;5104734;28;20100;-66
2023/03/11 12:10:50;;;;;;;8.98;6.75;;;6.10;97.90;;;;;;5107479;28;20542;-65
2023/03/11 12:13:27;;;;;;;10.18;6.55;;;6.20;97.80;;;;;;5090605;28;20040;-66
2023/03/11 12:16:22;;;;;;;9.02;6.55;;;6.30;97.70;;;;;;5099147;28;20024;-66
2023/03/11 12:19:06;;;;;;;8.68;6.32;;;6.30;97.30;;;;;;5096022;28;20484;-65
2023/03/11 12:21:34;;;;;;;9.05;6.50;;;6.30;96.60;;;;;;5104759;28;20110;-65
2023/03/11 12:24:18;;;;;;;9.18;5.63;;;6.20;96.20;;;;;;5098081;28;20016;-66
2023/03/11 12:26:46;;;;;;;9.15;6.60;;;6.20;96.70;;;;;;5094962;28;20050;-66
2023/03/11 12:29:43;;;;;;;7.70;6.40;;;6.20;96.80;;;;;;5103376;28;20039;-65
2023/03/11 12:32:28;;;;;;;8.45;6.35;;;6.30;96.80;;;;;;5088792;28;20111;-65
2023/03/11 12:34:53;;;;;;;8.45;6.00;;;6.30;96.40;;;;;;5101614;27;20218;-66
2023/03/11 12:37:22;;;;;;;9.82;6.60;;;6.20;96.30;;;;;;5109322;27;20473;-65
2023/03/11 12:39:47;;;;;;;8.23;6.80;;;6.10;96.10;;;;;;5096916;28;20115;-65
2023/03/11 12:42:15;;;;;;;9.02;6.38;;;6.00;96.20;;;;;;5087085;28;20115;-65
2023/03/11 12:44:41;;;;;;;8.90;6.65;;;6.00;96.20;;;;;;5081466;28;21330;-67
2023/03/11 12:47:07;;;;;;;9.52;5.85;;;6.00;96.40;;;;;;5095818;28;20116;-65
2023/03/11 12:49:34;;;;;;;9.35;6.55;;;6.10;96.50;;;;;;5093955;28;20044;-65
2023/03/11 12:52:10;;;;;;;10.10;6.13;;;6.10;96.30;;;;;;5097202;28;20031;-64
2023/03/11 12:54:46;;;;;;;8.77;5.70;;;6.20;96.10;;;;;;5112704;28;20027;-66
2023/03/11 12:57:17;;;;;;;8.35;6.22;;;6.20;95.60;;;;;;5098324;28;20036;-65
2023/03/11 13:00:17;;;;;;;8.68;6.40;;;6.00;94.90;;;;;;5094056;28;20039;-66
2023/03/11 13:02:54;;;;;;;9.55;6.03;;;6.00;95.70;;;;;;5109781;28;20102;-65
2023/03/11 13:05:39;;;;;;;7.75;5.85;;;6.00;95.70;;;;;;5080244;28;20028;-65